createdAt,value
2019-04-07T00:02:19.990Z,66.41
2019-04-07T00:04:50.632Z,66.41
2019-04-07T00:07:22.903Z,66.48
2019-04-07T00:09:55.867Z,66.05
2019-04-07T00:12:25.755Z,66.05
2019-04-07T00:14:56.211Z,65.64
2019-04-07T00:17:27.217Z,65.63
2019-04-07T00:19:58.317Z,65.66
2019-04-07T00:22:30.482Z,65.66
2019-04-07T00:25:02.474Z,65.86
2019-04-07T00:27:33.369Z,65.68
2019-04-07T00:30:04.031Z,65.68
2019-04-07T00:32:35.035Z,65.25
2019-04-07T00:35:06.059Z,65.44
2019-04-07T00:37:36.300Z,65.61
2019-04-07T00:40:07.031Z,65.61
2019-04-07T00:42:38.100Z,65.02
2019-04-07T00:45:08.863Z,64.94
2019-04-07T00:47:39.306Z,65.22
2019-04-07T00:50:09.472Z,64.98
2019-04-07T00:52:39.485Z,64.77
2019-04-07T00:55:10.191Z,65.10
2019-04-07T00:57:40.729Z,65.10
2019-04-07T01:00:12.221Z,65.18
2019-04-07T01:02:45.490Z,65.74
2019-04-07T01:05:15.483Z,65.41
2019-04-07T01:07:46.381Z,65.41
2019-04-07T01:10:17.396Z,65.45
2019-04-07T01:12:47.448Z,65.25
2019-04-07T01:15:17.698Z,65.06
2019-04-07T01:17:48.705Z,65.14
2019-04-07T01:20:19.809Z,65.14
2019-04-07T01:22:50.134Z,65.16
2019-04-07T01:25:20.321Z,65.16
2019-04-07T01:27:52.219Z,64.64
2019-04-07T01:30:22.940Z,64.80
2019-04-07T01:32:53.505Z,64.80
2019-04-07T01:35:24.786Z,65.53
2019-04-07T01:37:56.101Z,65.29
2019-04-07T01:40:28.845Z,65.34
2019-04-07T01:43:23.855Z,65.27
2019-04-07T01:46:17.516Z,65.22
2019-04-07T01:49:11.001Z,65.22
2019-04-07T01:51:50.870Z,65.59
2019-04-07T01:54:49.414Z,65.90
2019-04-07T01:57:38.685Z,65.90
2019-04-07T02:00:34.405Z,65.61
2019-04-07T02:03:18.833Z,65.94
2019-04-07T02:06:08.248Z,65.80
2019-04-07T02:09:01.739Z,65.80
2019-04-07T02:12:03.516Z,66.05
2019-04-07T02:14:51.145Z,65.82
2019-04-07T02:17:41.548Z,66.11
2019-04-07T02:21:07.096Z,66.41
2019-04-07T02:23:53.622Z,66.80
2019-04-07T02:26:31.933Z,66.80
2019-04-07T02:29:39.969Z,67.78
2019-04-07T02:32:27.836Z,68.08
2019-04-07T02:35:32.436Z,68.28
2019-04-07T02:38:17.085Z,68.95
2019-04-07T02:40:53.735Z,69.02
2019-04-07T02:43:46.570Z,69.02
2019-04-07T02:46:31.482Z,69.61
2019-04-07T02:49:24.161Z,69.45
2019-04-07T02:52:16.592Z,69.45
2019-04-07T02:55:09.692Z,70.31
2019-04-07T02:57:59.624Z,70.32
2019-04-07T03:00:39.727Z,70.32
2019-04-07T03:03:41.074Z,70.81
2019-04-07T03:06:47.667Z,70.81
2019-04-07T03:09:34.894Z,71.31
2019-04-07T03:12:18.966Z,71.63
2019-04-07T03:15:09.357Z,71.68
2019-04-07T03:18:01.762Z,71.68
2019-04-07T03:20:53.868Z,71.80
2019-04-07T03:23:44.420Z,72.06
2019-04-07T03:26:32.367Z,72.06
2019-04-07T03:29:14.847Z,72.35
2019-04-07T03:32:15.855Z,72.21
2019-04-07T03:35:15.976Z,72.31
2019-04-07T03:37:53.337Z,72.85
2019-04-07T03:40:42.947Z,72.85
2019-04-07T03:43:34.919Z,72.72
2019-04-07T03:46:17.162Z,72.90
2019-04-07T03:49:09.963Z,73.20
2019-04-07T03:51:49.905Z,73.12
2019-04-07T03:54:46.551Z,73.12
2019-04-07T03:57:44.591Z,73.46
2019-04-07T04:01:35.815Z,73.46
2019-04-07T04:04:30.034Z,73.58
2019-04-07T04:07:22.406Z,74.42
2019-04-07T04:10:09.805Z,74.74
2019-04-07T04:12:59.370Z,74.74
2019-04-07T04:15:54.731Z,74.52
2019-04-07T04:18:26.235Z,74.71
2019-04-07T04:20:57.169Z,74.59
2019-04-07T04:23:28.510Z,74.43
2019-04-07T04:25:59.070Z,74.53
2019-04-07T04:28:30.681Z,74.53
2019-04-07T04:31:00.948Z,74.14
2019-04-07T04:33:31.096Z,74.87
2019-04-07T04:36:03.047Z,74.27
2019-04-07T04:38:33.809Z,74.05
2019-04-07T04:41:04.837Z,74.54
2019-04-07T04:43:36.034Z,74.07
2019-04-07T04:46:09.415Z,74.47
2019-04-07T04:48:38.762Z,74.20
2019-04-07T04:51:09.753Z,74.10
2019-04-07T04:53:44.305Z,74.10
2019-04-07T04:56:16.872Z,74.08
2019-04-07T04:58:47.750Z,74.22
2019-04-07T05:01:19.428Z,74.22
2019-04-07T05:03:49.558Z,75.07
2019-04-07T05:06:20.981Z,75.07
2019-04-07T05:08:52.401Z,74.57
2019-04-07T05:11:22.528Z,75.10
2019-04-07T05:13:53.083Z,75.10
2019-04-07T05:16:24.495Z,74.72
2019-04-07T05:18:55.027Z,74.66
2019-04-07T05:21:25.177Z,74.58
2019-04-07T05:23:55.167Z,74.58
2019-04-07T05:26:26.491Z,74.26
2019-04-07T05:28:58.236Z,74.15
2019-04-07T05:31:28.509Z,73.71
2019-04-07T05:34:00.298Z,73.56
2019-04-07T05:36:36.949Z,73.59
2019-04-07T05:39:08.652Z,73.35
2019-04-07T05:41:39.288Z,73.25
2019-04-07T05:44:11.390Z,72.93
2019-04-07T05:46:42.607Z,72.93
2019-04-07T05:49:15.784Z,72.73
2019-04-07T05:51:45.144Z,71.97
2019-04-07T05:54:18.080Z,72.14
2019-04-07T05:56:47.532Z,71.55
2019-04-07T05:59:17.974Z,71.55
2019-04-07T06:01:51.599Z,71.15
2019-04-07T06:04:21.736Z,70.76
2019-04-07T06:06:55.077Z,70.76
2019-04-07T06:09:24.179Z,70.25
2019-04-07T06:11:54.472Z,70.95
2019-04-07T06:14:24.494Z,70.29
2019-04-07T06:16:55.809Z,70.04
2019-04-07T06:19:27.905Z,69.88
2019-04-07T06:21:58.064Z,69.82
2019-04-07T06:24:31.608Z,69.82
2019-04-07T06:27:00.798Z,68.97
2019-04-07T06:29:31.118Z,68.97
2019-04-07T06:32:03.679Z,68.00
2019-04-07T06:34:33.795Z,68.00
2019-04-07T06:37:04.526Z,68.57
2019-04-07T06:39:35.204Z,68.44
2019-04-07T06:42:05.880Z,67.69
2019-04-07T06:44:38.548Z,66.82
2019-04-07T06:47:22.066Z,66.90
2019-04-07T06:50:09.708Z,65.45
2019-04-07T06:53:02.232Z,65.45
2019-04-07T06:55:58.454Z,64.53
2019-04-07T06:58:49.208Z,64.53
2019-04-07T07:01:29.735Z,64.07
2019-04-07T07:04:17.959Z,64.71
2019-04-07T07:07:13.029Z,64.71
2019-04-07T07:10:25.763Z,64.07
2019-04-07T07:13:09.454Z,64.07
2019-04-07T07:15:41.784Z,63.25
2019-04-07T07:18:30.638Z,63.98
2019-04-07T07:21:20.189Z,62.53
2019-04-07T07:23:50.545Z,62.53
2019-04-07T07:26:21.887Z,62.44
2019-04-07T07:28:53.006Z,62.83
2019-04-07T07:31:25.793Z,62.14
2019-04-07T07:34:09.308Z,62.01
2019-04-07T07:36:38.334Z,60.91
2019-04-07T07:39:11.794Z,60.91
2019-04-07T07:41:40.994Z,61.30
2019-04-07T07:44:10.956Z,60.57
2019-04-07T07:46:42.164Z,59.19
2019-04-07T07:49:12.472Z,59.30
2019-04-07T07:51:45.063Z,59.30
2019-04-07T07:54:15.068Z,58.36
2019-04-07T07:56:49.386Z,58.36
2019-04-07T07:59:17.804Z,57.54
2019-04-07T08:01:50.299Z,56.96
2019-04-07T08:04:20.731Z,56.96
2019-04-07T08:06:51.280Z,57.03
2019-04-07T08:09:24.965Z,56.98
2019-04-07T08:11:54.362Z,56.98
2019-04-07T08:14:24.497Z,55.20
2019-04-07T08:17:00.188Z,56.11
2019-04-07T08:19:30.524Z,56.11
2019-04-07T08:22:01.761Z,54.86
2019-04-07T08:24:32.717Z,54.86
2019-04-07T08:27:07.363Z,54.95
2019-04-07T08:29:39.564Z,54.95
2019-04-07T08:32:09.012Z,54.14
2019-04-07T08:34:39.253Z,52.65
2019-04-07T08:37:13.907Z,52.26
2019-04-07T08:39:42.176Z,50.46
2019-04-07T08:42:17.509Z,50.46
2019-04-07T08:44:46.254Z,50.41
2019-04-07T08:47:20.008Z,50.39
2019-04-07T08:49:48.249Z,49.48
2019-04-07T08:52:18.523Z,50.50
2019-04-07T08:54:52.178Z,48.19
2019-04-07T08:57:21.385Z,48.81
2019-04-07T08:59:51.690Z,46.72
2019-04-07T09:02:24.481Z,46.72
2019-04-07T09:04:53.537Z,48.29
2019-04-07T09:07:26.634Z,46.88
2019-04-07T09:10:04.547Z,46.88
2019-04-07T09:12:38.101Z,46.62
2019-04-07T09:15:11.816Z,46.35
2019-04-07T09:17:49.639Z,46.83
2019-04-07T09:20:46.135Z,46.45
2019-04-07T09:23:42.591Z,46.24
2019-04-07T09:26:30.323Z,46.24
2019-04-07T09:29:07.304Z,46.66
2019-04-07T09:32:05.431Z,46.66
2019-04-07T09:34:54.017Z,46.00
2019-04-07T09:37:53.322Z,45.82
2019-04-07T09:40:42.429Z,46.72
2019-04-07T09:43:26.184Z,46.72
2019-04-07T09:46:14.711Z,45.93
2019-04-07T09:49:15.767Z,46.25
2019-04-07T09:52:23.943Z,45.55
2019-04-07T09:55:08.318Z,45.40
2019-04-07T09:57:53.865Z,45.40
2019-04-07T10:00:35.223Z,44.59
2019-04-07T10:03:14.852Z,44.59
2019-04-07T10:06:11.150Z,44.83
2019-04-07T10:09:13.012Z,44.83
2019-04-07T10:11:55.385Z,44.50
2019-04-07T10:14:35.057Z,44.77
2019-04-07T10:17:24.298Z,44.77
2019-04-07T10:20:16.390Z,44.15
2019-04-07T10:23:08.026Z,44.15
2019-04-07T10:26:15.749Z,44.80
2019-04-07T10:29:11.028Z,44.14
2019-04-07T10:32:15.126Z,43.11
2019-04-07T10:35:19.304Z,43.11
2019-04-07T10:38:17.503Z,42.44
2019-04-07T10:41:06.796Z,43.08
2019-04-07T10:43:52.961Z,42.98
2019-04-07T10:46:31.533Z,42.98
2019-04-07T10:49:22.707Z,43.29
2019-04-07T10:52:21.445Z,41.96
2019-04-07T10:55:05.092Z,40.86
2019-04-07T10:57:43.631Z,40.86
2019-04-07T11:00:30.265Z,40.78
2019-04-07T11:03:33.000Z,39.73
2019-04-07T11:06:20.540Z,39.73
2019-04-07T11:09:13.869Z,39.70
2019-04-07T11:12:03.266Z,39.82
2019-04-07T11:14:50.149Z,39.61
2019-04-07T11:17:33.829Z,39.61
2019-04-07T11:20:13.228Z,39.42
2019-04-07T11:23:01.984Z,39.24
2019-04-07T11:25:51.142Z,39.42
2019-04-07T11:28:29.505Z,39.35
2019-04-07T11:31:19.787Z,39.35
2019-04-07T11:34:07.199Z,39.63
2019-04-07T11:37:04.954Z,38.83
2019-04-07T11:39:55.370Z,38.54
2019-04-07T11:42:44.777Z,39.19
2019-04-07T11:45:37.780Z,40.68
2019-04-07T11:48:29.507Z,39.30
2019-04-07T11:51:22.690Z,39.30
2019-04-07T11:57:27.066Z,38.93
2019-04-07T12:00:49.074Z,39.23
2019-04-07T12:03:57.146Z,39.09
2019-04-07T12:06:49.825Z,38.70
2019-04-07T12:09:30.511Z,39.06
2019-04-07T12:12:20.149Z,39.06
2019-04-07T12:15:04.227Z,39.09
2019-04-07T12:17:59.258Z,39.09
2019-04-07T12:20:44.001Z,39.39
2019-04-07T12:23:53.374Z,38.62
2019-04-07T12:26:45.195Z,38.96
2019-04-07T12:29:40.146Z,38.96
2019-04-07T12:32:27.681Z,38.45
2019-04-07T12:35:20.329Z,38.07
2019-04-07T12:38:13.507Z,38.98
2019-04-07T12:41:13.470Z,38.98
2019-04-07T12:44:08.015Z,39.00
2019-04-07T12:46:58.338Z,39.00
2019-04-07T12:49:50.650Z,39.41
2019-04-07T12:52:48.481Z,39.02
2019-04-07T12:55:37.203Z,38.41
2019-04-07T12:58:24.560Z,38.41
2019-04-07T13:01:19.332Z,39.78
2019-04-07T13:03:54.741Z,39.54
2019-04-07T13:06:45.232Z,39.91
2019-04-07T13:09:34.673Z,40.53
2019-04-07T13:12:24.751Z,40.61
2019-04-07T13:15:14.170Z,40.12
2019-04-07T13:17:57.428Z,40.12
2019-04-07T13:20:38.616Z,39.33
2019-04-07T13:23:29.775Z,39.33
2019-04-07T13:26:19.147Z,40.40
2019-04-07T13:29:01.922Z,40.40
2019-04-07T13:31:50.455Z,39.02
2019-04-07T13:34:46.177Z,38.64
2019-04-07T13:37:32.776Z,38.88
2019-04-07T13:40:21.814Z,38.54
2019-04-07T13:43:11.152Z,38.67
2019-04-07T13:45:53.903Z,37.50
2019-04-07T13:49:02.830Z,37.50
2019-04-07T13:51:45.786Z,37.10
2019-04-07T13:54:37.167Z,36.96
2019-04-07T13:57:27.611Z,36.96
2019-04-07T14:00:26.349Z,36.64
2019-04-07T14:03:23.359Z,36.64
2019-04-07T14:06:18.186Z,37.62
2019-04-07T14:09:04.405Z,36.65
2019-04-07T14:12:04.896Z,37.67
2019-04-07T14:14:43.731Z,37.67
2019-04-07T14:17:31.883Z,37.11
2019-04-07T14:20:08.945Z,37.11
2019-04-07T14:23:07.379Z,37.46
2019-04-07T14:25:59.959Z,37.26
2019-04-07T14:29:03.065Z,36.88
2019-04-07T14:31:59.448Z,38.10
2019-04-07T14:34:49.827Z,36.46
2019-04-07T14:37:36.222Z,36.46
2019-04-07T14:40:17.283Z,37.48
2019-04-07T14:43:05.248Z,37.48
2019-04-07T14:45:48.468Z,37.68
2019-04-07T14:48:34.790Z,37.07
2019-04-07T14:51:26.637Z,36.84
2019-04-07T14:54:06.673Z,36.84
2019-04-07T14:56:59.368Z,36.03
2019-04-07T14:59:43.903Z,36.31
2019-04-07T15:02:15.616Z,35.76
2019-04-07T15:04:54.346Z,35.76
2019-04-07T15:07:44.004Z,36.02
2019-04-07T15:10:30.805Z,36.02
2019-04-07T15:13:05.229Z,37.16
2019-04-07T15:15:39.979Z,37.16
2019-04-07T15:18:10.002Z,35.49
2019-04-07T15:20:42.832Z,35.89
2019-04-07T15:23:14.810Z,35.45
2019-04-07T15:25:46.428Z,36.92
2019-04-07T15:28:17.499Z,36.92
2019-04-07T15:30:49.137Z,36.97
2019-04-07T15:33:22.547Z,36.67
2019-04-07T15:35:53.438Z,36.67
2019-04-07T15:38:27.183Z,37.01
2019-04-07T15:40:59.647Z,36.12
2019-04-07T15:43:34.917Z,36.36
2019-04-07T15:46:03.853Z,36.36
2019-04-07T15:48:34.165Z,36.05
2019-04-07T15:51:04.932Z,36.05
2019-04-07T15:53:34.920Z,36.70
2019-04-07T15:56:06.485Z,36.30
2019-04-07T15:58:38.689Z,35.62
2019-04-07T16:01:11.793Z,35.62
2019-04-07T16:03:42.111Z,35.51
2019-04-07T16:06:15.300Z,35.51
2019-04-07T16:08:43.680Z,36.31
2019-04-07T16:11:13.625Z,36.31
2019-04-07T16:13:44.368Z,35.55
2019-04-07T16:16:14.600Z,36.21
2019-04-07T16:18:45.431Z,36.44
2019-04-07T16:21:18.041Z,35.93
2019-04-07T16:23:50.232Z,35.50
2019-04-07T16:26:20.149Z,37.01
2019-04-07T16:28:50.088Z,37.01
2019-04-07T16:31:24.286Z,36.93
2019-04-07T16:33:52.937Z,37.05
2019-04-07T16:36:25.394Z,37.05
2019-04-07T16:38:55.066Z,37.27
2019-04-07T16:41:25.892Z,37.97
2019-04-07T16:43:55.969Z,38.30
2019-04-07T16:46:26.015Z,38.95
2019-04-07T16:48:58.472Z,38.67
2019-04-07T16:51:31.649Z,38.67
2019-04-07T16:54:03.435Z,38.97
2019-04-07T16:56:33.458Z,40.63
2019-04-07T16:59:04.218Z,40.63
2019-04-07T17:01:37.854Z,41.02
2019-04-07T17:04:09.391Z,41.25
2019-04-07T17:06:40.187Z,40.26
2019-04-07T17:09:18.203Z,40.76
2019-04-07T17:11:48.309Z,40.76
2019-04-07T17:14:18.877Z,41.79
2019-04-07T17:16:48.906Z,42.44
2019-04-07T17:19:19.885Z,42.63
2019-04-07T17:21:56.440Z,42.76
2019-04-07T17:24:30.361Z,43.67
2019-04-07T17:27:03.117Z,43.67
2019-04-07T17:29:35.612Z,45.12
2019-04-07T17:32:06.390Z,44.22
2019-04-07T17:34:36.871Z,44.61
2019-04-07T17:37:07.777Z,44.96
2019-04-07T17:39:46.616Z,44.45
2019-04-07T17:42:18.408Z,45.00
2019-04-07T17:45:27.530Z,45.36
2019-04-07T17:48:14.906Z,45.46
2019-04-07T17:51:16.654Z,45.96
2019-04-07T17:53:57.704Z,45.80
2019-04-07T17:56:35.773Z,45.79
2019-04-07T17:59:24.821Z,46.59
2019-04-07T18:02:11.822Z,46.77
2019-04-07T18:04:53.714Z,46.77
2019-04-07T18:07:43.467Z,47.11
2019-04-07T18:10:35.231Z,48.15
2019-04-07T18:13:24.741Z,48.80
2019-04-07T18:16:18.375Z,47.95
2019-04-07T18:19:08.677Z,47.95
2019-04-07T18:22:18.245Z,48.97
2019-04-07T18:24:55.279Z,48.97
2019-04-07T18:27:33.276Z,49.14
2019-04-07T18:30:31.526Z,49.73
2019-04-07T18:33:20.689Z,49.73
2019-04-07T18:36:07.912Z,49.55
2019-04-07T18:39:17.337Z,50.18
2019-04-07T18:42:10.282Z,49.92
2019-04-07T18:44:59.566Z,49.92
2019-04-07T18:48:04.508Z,49.79
2019-04-07T18:50:53.294Z,50.15
2019-04-07T18:53:45.378Z,50.15
2019-04-07T18:56:34.554Z,50.55
2019-04-07T18:59:29.411Z,50.55
2019-04-07T19:02:17.156Z,51.18
2019-04-07T19:05:08.747Z,51.31
2019-04-07T19:08:05.998Z,52.89
2019-04-07T19:11:17.020Z,52.29
2019-04-07T19:14:14.268Z,52.29
2019-04-07T19:16:50.267Z,53.08
2019-04-07T19:19:47.139Z,53.48
2019-04-07T19:22:36.651Z,53.48
2019-04-07T19:25:24.651Z,53.97
2019-04-07T19:28:06.000Z,53.83
2019-04-07T19:30:47.511Z,54.01
2019-04-07T19:33:35.989Z,53.89
2019-04-07T19:36:24.406Z,53.89
2019-04-07T19:39:11.409Z,53.50
2019-04-07T19:42:14.353Z,54.32
2019-04-07T19:45:07.067Z,55.10
2019-04-07T19:48:11.924Z,54.71
2019-04-07T19:50:59.982Z,54.33
2019-04-07T19:53:56.189Z,54.98
2019-04-07T19:56:48.381Z,54.98
2019-04-07T19:59:42.667Z,55.36
2019-04-07T20:02:39.063Z,56.85
2019-04-07T20:05:27.263Z,57.02
2019-04-07T20:08:14.689Z,57.07
2019-04-07T20:10:57.172Z,57.07
2019-04-07T20:13:49.458Z,56.83
2019-04-07T20:16:47.385Z,57.50
2019-04-07T20:19:41.135Z,57.50
2019-04-07T20:22:28.747Z,58.03
2019-04-07T20:25:33.271Z,58.05
2019-04-07T20:28:30.437Z,57.99
2019-04-07T20:31:19.404Z,57.99
2019-04-07T20:34:02.171Z,57.83
2019-04-07T20:36:51.750Z,57.92
2019-04-07T20:39:47.796Z,58.32
2019-04-07T20:42:31.148Z,58.04
2019-04-07T20:45:19.268Z,58.30
2019-04-07T20:48:05.555Z,58.00
2019-04-07T20:51:12.914Z,58.00
2019-04-07T20:54:21.610Z,58.04
2019-04-07T20:57:09.298Z,58.65
2019-04-07T20:59:51.202Z,58.65
2019-04-07T21:02:37.742Z,58.24
2019-04-07T21:05:36.084Z,58.38
2019-04-07T21:08:20.093Z,59.18
2019-04-07T21:11:22.180Z,59.18
2019-04-07T21:14:19.092Z,59.18
2019-04-07T21:17:11.025Z,59.83
2019-04-07T21:19:59.169Z,59.83
2019-04-07T21:22:36.978Z,60.10
2019-04-07T21:25:16.808Z,60.31
2019-04-07T21:28:09.036Z,60.42
2019-04-07T21:30:59.175Z,60.45
2019-04-07T21:34:00.178Z,60.57
2019-04-07T21:36:45.216Z,60.85
2019-04-07T21:39:30.473Z,61.00
2019-04-07T21:42:23.207Z,61.00
2019-04-07T21:45:11.938Z,61.27
2019-04-07T21:47:53.135Z,61.10
2019-04-07T21:50:44.832Z,61.10
2019-04-07T21:53:30.402Z,61.15
2019-04-07T21:56:43.151Z,61.53
2019-04-07T21:59:39.690Z,61.52
2019-04-07T22:02:29.309Z,61.41
2019-04-07T22:05:15.651Z,61.41
2019-04-07T22:07:54.268Z,61.45
2019-04-07T22:10:24.317Z,61.55
2019-04-07T22:13:03.361Z,61.81
2019-04-07T22:15:42.149Z,61.95
2019-04-07T22:18:01.320Z,61.95
2019-04-07T22:20:31.397Z,62.06
2019-04-07T22:23:02.894Z,62.06
2019-04-07T22:25:33.525Z,61.80
2019-04-07T22:28:03.487Z,61.83
2019-04-07T22:30:34.040Z,62.04
2019-04-07T22:33:09.143Z,62.04
2019-04-07T22:35:41.751Z,62.46
2019-04-07T22:38:11.397Z,62.42
2019-04-07T22:40:41.657Z,62.42
2019-04-07T22:43:11.686Z,62.72
2019-04-07T22:45:52.715Z,62.43
2019-04-07T22:48:14.147Z,62.71
2019-04-07T22:50:44.319Z,62.99
2019-04-07T22:53:14.222Z,63.18
2019-04-07T22:55:44.389Z,63.18
2019-04-07T22:58:14.270Z,63.11
2019-04-07T23:00:44.615Z,62.95
2019-04-07T23:03:15.555Z,62.95
2019-04-07T23:05:47.009Z,63.73
2019-04-07T23:08:17.375Z,63.38
2019-04-07T23:10:47.904Z,63.88
2019-04-07T23:13:18.470Z,63.88
2019-04-07T23:15:48.654Z,63.79
2019-04-07T23:18:18.659Z,63.89
2019-04-07T23:20:49.165Z,64.28
2019-04-07T23:23:19.144Z,64.29
2019-04-07T23:25:48.942Z,64.41
2019-04-07T23:28:18.925Z,64.41
2019-04-07T23:30:49.215Z,64.39
2019-04-07T23:33:20.148Z,64.67
2019-04-07T23:35:50.038Z,64.67
2019-04-07T23:38:19.850Z,64.94
2019-04-07T23:40:49.874Z,64.55
2019-04-07T23:43:19.961Z,64.84
2019-04-07T23:45:49.882Z,65.47
2019-04-07T23:48:20.038Z,64.97
2019-04-07T23:50:50.165Z,64.97
2019-04-07T23:53:55.870Z,65.59
2019-04-07T23:56:26.159Z,65.59
2019-04-07T23:58:56.279Z,65.51
